Bonassola — IWEE — position and weather

sailwx.info

Track history (hours):
 
Tides and Currents Weather Stations Pressure Air Temp Water Temp Dewpoint Dewpoint Depression Visibility Wind Speed Wind Dir Waves Ship Positions

Bonassola

Last reported at 2017-Oct-06 09:25 UTC. Time now 2017-Oct-19 12:43 UTC.
Position N 44°25' E 008°55'.
Warning: this ship's position is 13 days out of date.

Length 60 m; draft 4 m.

Type: Pollution control. MMSI: 247159000.

Date/timePositionNaut miles runAvg speedWind from/ knotsBaromVisibWave heightAir tempDewpointWater temp
2017-Oct-06 09:25N 44°25' E 008°55'0 0.0
2017-Oct-06 08:55N 44°25' E 008°55'0 0.0
2017-Oct-06 08:25N 44°25' E 008°55'0 0.0
2017-Oct-06 07:55N 44°25' E 008°55'0 0.0
2017-Oct-06 07:25N 44°25' E 008°55'0 0.0
2017-Oct-06 06:55N 44°25' E 008°55'0 0.0
2017-Oct-06 06:28N 44°25' E 008°55'0 0.0
2017-Oct-06 05:58N 44°25' E 008°55'0 0.0
2017-Oct-06 05:28N 44°25' E 008°55'0 0.0
2017-Oct-06 04:58N 44°25' E 008°55'0 0.0
2017-Oct-06 04:28N 44°25' E 008°55'0 0.0
2017-Oct-06 03:58N 44°25' E 008°55'0 0.0
2017-Oct-06 03:28N 44°25' E 008°55'0 0.0
2017-Oct-06 02:58N 44°25' E 008°55'0 0.0
2017-Oct-06 02:28N 44°25' E 008°55'0 0.0
2017-Oct-06 01:58N 44°25' E 008°55'0 0.0
2017-Oct-06 01:28N 44°25' E 008°55'0 0.0
2017-Oct-06 00:58N 44°25' E 008°55'0 0.0
2017-Oct-06 00:28N 44°25' E 008°55'0 0.0
2017-Oct-05 23:58N 44°25' E 008°55'0 0.0
2017-Oct-05 23:28N 44°25' E 008°55'0 0.0
2017-Oct-05 22:49N 44°25' E 008°55'0 0.0
2017-Oct-05 22:25N 44°25' E 008°55'0 0.0
2017-Oct-05 21:58N 44°25' E 008°55'0 0.0
2017-Oct-05 21:25N 44°25' E 008°55'0 0.0
2017-Oct-05 20:58N 44°25' E 008°55'0 0.0
2017-Oct-05 20:25N 44°25' E 008°55'0 0.0
2017-Oct-05 19:52N 44°25' E 008°55'0 0.0
2017-Oct-05 19:25N 44°25' E 008°55'0 0.0
2017-Oct-05 18:55N 44°25' E 008°55'0 0.0
2017-Oct-05 18:28N 44°25' E 008°55'0 0.0
2017-Oct-05 17:55N 44°25' E 008°55'0 0.0
2017-Oct-05 17:25N 44°25' E 008°55'0 0.0
2017-Oct-05 16:55N 44°25' E 008°55'0 0.0
2017-Oct-05 15:28N 44°25' E 008°55'0 0.0
2017-Oct-05 14:58N 44°25' E 008°55'0 0.0
2017-Oct-05 14:19N 44°25' E 008°55'0 0.0
2017-Oct-05 13:58N 44°25' E 008°55'0 0.0
2017-Oct-05 13:28N 44°25' E 008°55'0 0.0
2017-Oct-05 12:58N 44°25' E 008°55'0 0.0
2017-Oct-05 12:28N 44°25' E 008°55'0 0.0
2017-Oct-05 11:58N 44°25' E 008°55'0 0.0
2017-Oct-05 11:29N 44°25' E 008°55'0 0.1
2017-Oct-05 11:01N 44°25' E 008°55'3 6.1
2017-Oct-05 10:30N 44°22' E 008°58'4 7.2
2017-Oct-05 10:01N 44°19' E 008°56'4 7.5
2017-Oct-05 09:31N 44°17' E 008°52'3 6.8
2017-Oct-05 09:01N 44°15' E 008°48'3 6.6
2017-Oct-05 08:31N 44°13' E 008°44'3 6.7
2017-Oct-05 08:01N 44°10' E 008°41'3 6.7
2017-Oct-05 07:31N 44°08' E 008°38'3 6.7
2017-Oct-05 07:00N 44°06' E 008°34'3 6.5
2017-Oct-05 06:31N 44°04' E 008°31'4 6.5
2017-Oct-05 05:56N 44°01' E 008°27'3 6.5
2017-Oct-05 05:30N 43°59' E 008°24'8 6.4
2017-Oct-05 04:12N 43°54' E 008°15'3 6.2
2017-Oct-05 03:44N 43°52' E 008°12'1 6.0
2017-Oct-05 03:29N 43°51' E 008°10'4 6.0
2017-Oct-05 02:50N 43°49' E 008°05'2 6.0
2017-Oct-05 02:30N 43°49' E 008°03'4 6.3
2017-Oct-05 01:50N 43°47' E 007°58'3 6.3
2017-Oct-05 01:22N 43°45' E 007°54'3 6.3
2017-Oct-05 00:57N 43°44' E 007°51'3 6.3
2017-Oct-05 00:28N 43°42' E 007°47'3 6.2
2017-Oct-04 23:59N 43°41' E 007°44'4 6.9
2017-Oct-04 23:25N 43°39' E 007°39'3 7.0
2017-Oct-04 23:00N 43°37' E 007°36'4 7.0
2017-Oct-04 22:30N 43°35' E 007°32'4 6.9
2017-Oct-04 21:54N 43°33' E 007°27'3 6.8
2017-Oct-04 21:29N 43°32' E 007°23'3 6.8
2017-Oct-04 20:59N 43°29' E 007°20'3 6.9
2017-Oct-04 20:29N 43°27' E 007°16'3 7.0
2017-Oct-04 20:01N 43°25' E 007°13'3 6.9
2017-Oct-04 19:30N 43°23' E 007°09'3 6.9
2017-Oct-04 19:00N 43°20' E 007°06'3 7.0
2017-Oct-04 18:30N 43°18' E 007°02'20 6.9
2017-Oct-04 15:39N 43°06' E 006°41'1 7.2
2017-Oct-04 15:27N 43°06' E 006°39'16 0.9
2017-Oct-03 21:41N 43°15' E 006°57'2 5.8
2017-Oct-03 21:25N 43°16' E 006°59'2 5.9
2017-Oct-03 21:01N 43°17' E 007°01'3 5.9
2017-Oct-03 20:31N 43°19' E 007°04'3 5.8
2017-Oct-03 20:00N 43°21' E 007°07'3 5.6
2017-Oct-03 19:30N 43°23' E 007°10'3 5.7
2017-Oct-03 18:59N 43°25' E 007°13'3 5.7
2017-Oct-03 18:27N 43°28' E 007°16'4 6.7
2017-Oct-03 17:50N 43°30' E 007°20'2 6.8
2017-Oct-03 17:30N 43°30' E 007°23'50 7.2
2017-Oct-03 10:32N 43°58' E 008°21'0 7.7
2017-Oct-03 10:30N 43°58' E 008°22'4 7.8
2017-Oct-03 10:00N 44°01' E 008°25'4 7.8
2017-Oct-03 09:30N 44°03' E 008°30'4 7.9
2017-Oct-03 09:00N 44°06' E 008°34'4 8.1
2017-Oct-03 08:30N 44°08' E 008°38'4 8.1
2017-Oct-03 08:00N 44°11' E 008°43'4 8.4
2017-Oct-03 07:30N 44°13' E 008°47'4 8.3
2017-Oct-03 07:00N 44°16' E 008°52'4 7.9
2017-Oct-03 06:30N 44°19' E 008°56'3 6.7
2017-Oct-03 06:00N 44°22' E 008°57'3 5.6
2017-Oct-03 05:30N 44°25' E 008°55'0 0.4
2017-Oct-03 04:58N 44°25' E 008°55'0 0.0
2017-Oct-03 04:28N 44°25' E 008°55'0 0.0
2017-Oct-03 04:00N 44°25' E 008°55'0 0.0
2017-Oct-03 03:30N 44°25' E 008°55'0 0.0
2017-Oct-03 03:00N 44°25' E 008°55'0 0.0
2017-Oct-03 02:30N 44°25' E 008°55'0 0.0
2017-Oct-03 02:00N 44°25' E 008°55'0 0.0
2017-Oct-03 01:27N 44°25' E 008°55'0 0.0
2017-Oct-03 01:00N 44°25' E 008°55'0 0.0
2017-Oct-03 00:27N 44°25' E 008°55'0 0.0
2017-Oct-03 00:00N 44°25' E 008°55'0 0.0
2017-Oct-02 23:24N 44°25' E 008°55'0 0.0
2017-Oct-02 22:57N 44°25' E 008°55'0 0.0
2017-Oct-02 22:24N 44°25' E 008°55'0 0.0
2017-Oct-02 21:57N 44°25' E 008°55'0 0.0
2017-Oct-02 21:27N 44°25' E 008°55'0 0.0
2017-Oct-02 20:57N 44°25' E 008°55'0 0.0
2017-Oct-02 20:27N 44°25' E 008°55'0 0.0
2017-Oct-02 20:00N 44°25' E 008°55'0 0.0
2017-Oct-02 19:27N 44°25' E 008°55'0 0.0
2017-Oct-02 19:00N 44°25' E 008°55'0 0.0
2017-Oct-02 18:30N 44°25' E 008°55'0 0.0
2017-Oct-02 18:00N 44°25' E 008°55'0 0.0
2017-Oct-02 17:30N 44°25' E 008°55'0 0.0
2017-Oct-02 17:00N 44°25' E 008°55'0 0.0
2017-Oct-02 16:30N 44°25' E 008°55'0 0.0
2017-Oct-02 16:00N 44°25' E 008°55'0 0.0
2017-Oct-02 15:30N 44°25' E 008°55'0 0.0
2017-Oct-02 15:00N 44°25' E 008°55'0 0.0
2017-Oct-02 14:30N 44°25' E 008°55'0 0.0
2017-Oct-02 13:58N 44°25' E 008°55'0 0.0
2017-Oct-02 13:30N 44°25' E 008°55'0 0.0
2017-Oct-02 12:57N 44°25' E 008°55'0 0.0
2017-Oct-02 12:30N 44°25' E 008°55'0 0.0
2017-Oct-02 11:57N 44°25' E 008°55'0 0.0
2017-Oct-02 11:24N 44°25' E 008°55'0 0.0
2017-Oct-02 10:54N 44°25' E 008°55'0 0.0
2017-Oct-02 10:24N 44°25' E 008°55'0 0.0
2017-Oct-02 10:00N 44°25' E 008°55'0 0.0
2017-Oct-02 09:30N 44°25' E 008°55'0 0.0
2017-Oct-02 09:00N 44°25' E 008°55'0 0.0
2017-Oct-02 08:27N 44°25' E 008°55'0 0.0
2017-Oct-02 08:00N 44°25' E 008°55'0 0.0
2017-Oct-02 07:30N 44°25' E 008°55'0 0.0
2017-Oct-02 07:00N 44°25' E 008°55'0 0.0
2017-Oct-02 06:30N 44°25' E 008°55'0 0.0
2017-Oct-02 06:00N 44°25' E 008°55'0 0.0
2017-Oct-02 05:30N 44°25' E 008°55'0 0.0
2017-Oct-02 05:00N 44°25' E 008°55'0 0.0
2017-Oct-02 04:30N 44°25' E 008°55'0 0.0
2017-Oct-02 04:00N 44°25' E 008°55'0 0.0
2017-Oct-02 03:30N 44°25' E 008°55'0 0.0
2017-Oct-02 03:00N 44°25' E 008°55'0 0.0
2017-Oct-02 02:30N 44°25' E 008°55'0 0.0
2017-Oct-02 02:00N 44°25' E 008°55'0 0.0
2017-Oct-02 01:30N 44°25' E 008°55'0 0.0
2017-Oct-02 01:00N 44°25' E 008°55'0 0.0
2017-Oct-02 00:24N 44°25' E 008°55'0 0.0
2017-Oct-02 00:00N 44°25' E 008°55'0 0.0
2017-Oct-01 23:30N 44°25' E 008°55'0 0.0
2017-Oct-01 23:00N 44°25' E 008°55'0 0.0
2017-Oct-01 22:30N 44°25' E 008°55'0 0.0
2017-Oct-01 22:00N 44°25' E 008°55'0 0.0
2017-Oct-01 21:24N 44°25' E 008°55'0 0.0
2017-Oct-01 20:54N 44°25' E 008°55'0 0.0
2017-Oct-01 20:30N 44°25' E 008°55'0 0.0
2017-Oct-01 20:00N 44°25' E 008°55'0 0.0
2017-Oct-01 19:30N 44°25' E 008°55'0 0.0
2017-Oct-01 19:00N 44°25' E 008°55'0 0.0
2017-Oct-01 18:30N 44°25' E 008°55'0 0.0
2017-Oct-01 17:57N 44°25' E 008°55'0 0.0
2017-Oct-01 17:27N 44°25' E 008°55'0 0.0
2017-Oct-01 17:00N 44°25' E 008°55'0 0.0
2017-Oct-01 16:30N 44°25' E 008°55'0 0.0
2017-Oct-01 16:00N 44°25' E 008°55'0 0.0
2017-Oct-01 15:30N 44°25' E 008°55'0 0.0
2017-Oct-01 15:00N 44°25' E 008°55'0 0.0
2017-Oct-01 14:30N 44°25' E 008°55'0 0.0
2017-Oct-01 14:00N 44°25' E 008°55'0 0.0
2017-Oct-01 13:30N 44°25' E 008°55'0 0.0
2017-Oct-01 13:00N 44°25' E 008°55'0 0.0
2017-Oct-01 12:30N 44°25' E 008°55'0 0.0
2017-Oct-01 12:00N 44°25' E 008°55'0 0.0
2017-Oct-01 11:30N 44°25' E 008°55'0 0.0
2017-Oct-01 11:00N 44°25' E 008°55'0 0.0
2017-Oct-01 10:30N 44°25' E 008°55'0 0.0
2017-Oct-01 10:00N 44°25' E 008°55'0 0.0
2017-Oct-01 09:30N 44°25' E 008°55'0 0.0
2017-Oct-01 09:00N 44°25' E 008°55'0 0.0
2017-Oct-01 08:30N 44°25' E 008°55'0 0.0
2017-Oct-01 08:00N 44°25' E 008°55'0 0.0
2017-Oct-01 07:30N 44°25' E 008°55'0 0.0
2017-Oct-01 06:54N 44°25' E 008°55'0 0.0
2017-Oct-01 06:30N 44°25' E 008°55'0 0.0
2017-Oct-01 05:54N 44°25' E 008°55'0 0.1
2017-Oct-01 05:30N 44°25' E 008°55'0 0.0
2017-Oct-01 05:00N 44°25' E 008°55'0 0.0
2017-Oct-01 04:30N 44°25' E 008°55'0 0.0
2017-Oct-01 03:57N 44°25' E 008°55'0 0.0
2017-Oct-01 03:30N 44°25' E 008°55'0 0.0
2017-Oct-01 03:00N 44°25' E 008°55'0 0.0
2017-Sep-30 01:57N 44°25' E 008°55'0 0.0
2017-Sep-30 01:30N 44°25' E 008°55'0 0.0
2017-Sep-30 01:00N 44°25' E 008°55'0 0.0
2017-Sep-30 00:30N 44°25' E 008°55'0 0.0
2017-Sep-29 23:54N 44°25' E 008°55'0 0.0
2017-Sep-29 23:27N 44°25' E 008°55'0 0.0
2017-Sep-29 23:00N 44°25' E 008°55'0 0.0
2017-Sep-29 22:30N 44°25' E 008°55'0 0.0
2017-Sep-29 22:00N 44°25' E 008°55'0 0.0
2017-Sep-29 21:30N 44°25' E 008°55'0 0.0
2017-Sep-29 21:00N 44°25' E 008°55'0 0.0
2017-Sep-29 20:30N 44°25' E 008°55'0 0.0
2017-Sep-29 20:00N 44°25' E 008°55'0 0.0
2017-Sep-29 19:30N 44°25' E 008°55'0 0.0
2017-Sep-29 19:00N 44°25' E 008°55'0 0.0
2017-Sep-29 18:30N 44°25' E 008°55'0 0.0
2017-Sep-29 18:00N 44°25' E 008°55'0 0.0
2017-Sep-29 17:30N 44°25' E 008°55'0 0.0
2017-Sep-29 17:00N 44°25' E 008°55'0 0.0
2017-Sep-29 16:30N 44°25' E 008°55'0 0.0
2017-Sep-29 16:00N 44°25' E 008°55'0 0.0
2017-Sep-29 15:30N 44°25' E 008°55'0 0.0
2017-Sep-29 15:00N 44°25' E 008°55'0 0.0
2017-Sep-29 14:30N 44°25' E 008°55'0 0.0
2017-Sep-29 14:00N 44°25' E 008°55'0 0.0
2017-Sep-29 13:30N 44°25' E 008°55'0 0.0
2017-Sep-29 12:54N 44°25' E 008°55'0 0.1
2017-Sep-29 12:30N 44°25' E 008°55'0 0.0
2017-Sep-29 12:00N 44°25' E 008°55'0 0.0
2017-Sep-29 11:30N 44°25' E 008°55'0 0.0
2017-Sep-29 10:54N 44°25' E 008°55'0 0.0
2017-Sep-29 10:30N 44°25' E 008°55'0 0.0
2017-Sep-29 10:00N 44°25' E 008°55'0 0.0
2017-Sep-29 09:30N 44°25' E 008°55'0 0.0
2017-Sep-29 09:00N 44°25' E 008°55'0 0.0
2017-Sep-29 08:30N 44°25' E 008°55'0 0.0
2017-Sep-29 08:00N 44°25' E 008°55'0 0.0
2017-Sep-29 07:30N 44°25' E 008°55'0 0.0
2017-Sep-29 07:00N 44°25' E 008°55'0 0.0
2017-Sep-29 06:30N 44°25' E 008°55'0 0.0
2017-Sep-29 06:00N 44°25' E 008°55'0 0.0
2017-Sep-29 05:30N 44°25' E 008°55'0 0.0
2017-Sep-29 05:00N 44°25' E 008°55'0 0.0
2017-Sep-29 04:30N 44°25' E 008°55'0 0.0
2017-Sep-29 04:00N 44°25' E 008°55'0 0.0
2017-Sep-29 03:30N 44°25' E 008°55'0 0.0
2017-Sep-29 03:00N 44°25' E 008°55'0 0.0
2017-Sep-29 02:30N 44°25' E 008°55'0 0.0
2017-Sep-29 02:00N 44°25' E 008°55'0 0.0
2017-Sep-29 01:24N 44°25' E 008°55'0 0.0
2017-Sep-29 01:00N 44°25' E 008°55'0 0.0
2017-Sep-29 00:24N 44°25' E 008°55'0 0.0
2017-Sep-29 00:00N 44°25' E 008°55'0 0.0
2017-Sep-28 23:30N 44°25' E 008°55'0 0.0
2017-Sep-28 22:54N 44°25' E 008°55'0 0.0
2017-Sep-28 22:30N 44°25' E 008°55'0 0.0
2017-Sep-28 22:00N 44°25' E 008°55'0 0.0
2017-Sep-28 21:30N 44°25' E 008°55'0 0.0
2017-Sep-28 21:00N 44°25' E 008°55'0 0.0
2017-Sep-28 20:30N 44°25' E 008°55'0 0.0
2017-Sep-28 20:00N 44°25' E 008°55'0 0.0
2017-Sep-28 19:12N 44°25' E 008°55'0 0.0
2017-Sep-28 19:00N 44°25' E 008°55'0 0.0
2017-Sep-28 18:30N 44°25' E 008°55'0 0.0
2017-Sep-28 18:00N 44°25' E 008°55'0 0.0
2017-Sep-28 17:30N 44°25' E 008°55'0 0.0
2017-Sep-28 17:00N 44°25' E 008°55'0 0.0
2017-Sep-28 16:30N 44°25' E 008°55'0 0.0
2017-Sep-28 16:00N 44°25' E 008°55'0 0.0
2017-Sep-28 15:30N 44°25' E 008°55'0 0.0
2017-Sep-28 15:00N 44°25' E 008°55'0 0.0
2017-Sep-28 14:30N 44°25' E 008°55'0 0.0
2017-Sep-28 13:54N 44°25' E 008°55'0 0.0
2017-Sep-28 13:30N 44°25' E 008°55'0 0.0
2017-Sep-28 13:00N 44°25' E 008°55'0 0.0
2017-Sep-28 12:30N 44°25' E 008°55'0 0.0
2017-Sep-28 12:00N 44°25' E 008°55'0 0.0
2017-Sep-28 11:30N 44°25' E 008°55'0 0.0
2017-Sep-28 10:54N 44°25' E 008°55'0 0.0
2017-Sep-28 10:24N 44°25' E 008°55'0 0.0
2017-Sep-28 10:00N 44°25' E 008°55'0 0.0
2017-Sep-28 09:30N 44°25' E 008°55'0 0.0
2017-Sep-28 08:54N 44°25' E 008°55'0 0.0
2017-Sep-28 08:30N 44°25' E 008°55'0 0.0
2017-Sep-28 07:54N 44°25' E 008°55'0 0.0
2017-Sep-28 07:30N 44°25' E 008°55'0 0.0
2017-Sep-28 07:00N 44°25' E 008°55'0 0.0
2017-Sep-28 06:30N 44°25' E 008°55'0 0.0
2017-Sep-28 06:00N 44°25' E 008°55'0 0.0
2017-Sep-28 05:27N 44°25' E 008°55'0 0.0
2017-Sep-28 05:00N 44°25' E 008°55'0 0.0
2017-Sep-28 04:30N 44°25' E 008°55'0 0.0
2017-Sep-28 04:00N 44°25' E 008°55'0 0.0
2017-Sep-28 03:30N 44°25' E 008°55'0 0.0
2017-Sep-28 03:00N 44°25' E 008°55'0 0.0
2017-Sep-28 02:30N 44°25' E 008°55'0 0.0
2017-Sep-28 02:00N 44°25' E 008°55'0 0.0
2017-Sep-28 01:30N 44°25' E 008°55'0 0.0
2017-Sep-28 01:00N 44°25' E 008°55'0 0.0
2017-Sep-28 00:30N 44°25' E 008°55'0 0.0
2017-Sep-28 00:00N 44°25' E 008°55'0 0.0
2017-Sep-27 23:30N 44°25' E 008°55'0 0.0
2017-Sep-27 23:00N 44°25' E 008°55'0 0.0
2017-Sep-27 22:30N 44°25' E 008°55'0 0.0
2017-Sep-27 22:00N 44°25' E 008°55'0 0.0
2017-Sep-27 21:24N 44°25' E 008°55'0 0.0
2017-Sep-27 21:00N 44°25' E 008°55'0 0.0
2017-Sep-27 20:30N 44°25' E 008°55'0 0.0
2017-Sep-27 19:54N 44°25' E 008°55'0 0.0
2017-Sep-27 19:24N 44°25' E 008°55'0 0.0
2017-Sep-27 19:00N 44°25' E 008°55'0 0.0
2017-Sep-27 18:30N 44°25' E 008°55'0 0.0
2017-Sep-27 17:54N 44°25' E 008°55'0 0.0
2017-Sep-27 17:30N 44°25' E 008°55'0 0.0
2017-Sep-27 16:57N 44°25' E 008°55'0 0.0
2017-Sep-27 16:27N 44°25' E 008°55'0 0.0
2017-Sep-27 15:54N 44°25' E 008°55'0 0.0
2017-Sep-27 15:27N 44°25' E 008°55'0 0.0
2017-Sep-27 14:57N 44°25' E 008°55'0 0.0
2017-Sep-27 14:27N 44°25' E 008°55'0 0.0
2017-Sep-27 13:57N 44°25' E 008°55'0 0.0
2017-Sep-27 13:27N 44°25' E 008°55'0 0.0
2017-Sep-27 12:57N 44°25' E 008°55'0 0.0
2017-Sep-27 12:30N 44°25' E 008°55'0 0.0
2017-Sep-27 12:00N 44°25' E 008°55'0 0.0
2017-Sep-27 11:30N 44°25' E 008°55'0 0.0
2017-Sep-27 11:00N 44°25' E 008°55'0 0.0
2017-Sep-27 10:30N 44°25' E 008°55'0 0.0
2017-Sep-27 10:00N 44°25' E 008°55'0 0.0
2017-Sep-27 09:30N 44°25' E 008°55'0 0.0
2017-Sep-27 09:00N 44°25' E 008°55'0 0.0
2017-Sep-27 08:30N 44°25' E 008°55'0 0.0
2017-Sep-27 08:00N 44°25' E 008°55'0 0.0
2017-Sep-27 07:30N 44°25' E 008°55'0 0.0
2017-Sep-27 07:00N 44°25' E 008°55'0 0.0
2017-Sep-27 06:30N 44°25' E 008°55'0 0.0
2017-Sep-27 06:00N 44°25' E 008°55'0 0.0
2017-Sep-27 05:27N 44°25' E 008°55'0 0.0
2017-Sep-27 04:57N 44°25' E 008°55'0 0.0
2017-Sep-27 04:27N 44°25' E 008°55'0 0.0
2017-Sep-27 03:57N 44°25' E 008°55'0 0.0
2017-Sep-27 03:27N 44°25' E 008°55'0 0.0
2017-Sep-27 02:57N 44°25' E 008°55'0 0.0
2017-Sep-27 02:27N 44°25' E 008°55'0 0.0
2017-Sep-27 01:57N 44°25' E 008°55'0 0.0
2017-Sep-27 01:27N 44°25' E 008°55'0 0.0
2017-Sep-27 00:57N 44°25' E 008°55'0 0.0
2017-Sep-27 00:27N 44°25' E 008°55'0 0.0
2017-Sep-26 23:57N 44°25' E 008°55'0 0.0
2017-Sep-26 23:27N 44°25' E 008°55'0 0.0
2017-Sep-26 22:57N 44°25' E 008°55'0 0.0
2017-Sep-26 22:30N 44°25' E 008°55'0 0.0
2017-Sep-26 22:00N 44°25' E 008°55'0 0.0
2017-Sep-26 21:30N 44°25' E 008°55'0 0.0
2017-Sep-26 21:00N 44°25' E 008°55'0 0.0
2017-Sep-26 20:30N 44°25' E 008°55'0 0.0
2017-Sep-26 19:57N 44°25' E 008°55'0 0.0
2017-Sep-26 19:30N 44°25' E 008°55'0 0.0
2017-Sep-26 18:57N 44°25' E 008°55'0 0.0
2017-Sep-26 18:30N 44°25' E 008°55'0 0.0
2017-Sep-26 18:00N 44°25' E 008°55'0 0.0
2017-Sep-26 17:30N 44°25' E 008°55'0 0.0
2017-Sep-26 16:59N 44°25' E 008°55'0 0.0
2017-Sep-26 16:29N 44°25' E 008°55'0 0.0
2017-Sep-26 15:59N 44°25' E 008°55'0 0.0
2017-Sep-26 15:29N 44°25' E 008°55'0 0.0
2017-Sep-26 14:59N 44°25' E 008°55'0 0.0
2017-Sep-26 14:29N 44°25' E 008°55'0 0.0
2017-Sep-26 13:59N 44°25' E 008°55'0 0.0
2017-Sep-26 13:26N 44°25' E 008°55'0 0.0
2017-Sep-26 12:50N 44°25' E 008°55'0 0.0
2017-Sep-26 12:29N 44°25' E 008°55'0 0.0
2017-Sep-26 11:56N 44°25' E 008°55'0 0.0
2017-Sep-26 11:29N 44°25' E 008°55'0 0.0
2017-Sep-26 10:59N 44°25' E 008°55'0 0.0
2017-Sep-26 10:26N 44°25' E 008°55'0 0.0
2017-Sep-26 09:59N 44°25' E 008°55'0 0.0
2017-Sep-26 09:26N 44°25' E 008°55'  
Track history (hours):
 
Tides and Currents Weather Stations Pressure Air Temp Water Temp Dewpoint Dewpoint Depression Visibility Wind Speed Wind Dir Waves Ship Positions

Bonassola

Last reported at 2017-Oct-06 09:25 UTC. Time now 2017-Oct-19 12:43 UTC.
Position N 44°25' E 008°55'.
Warning: this ship's position is 13 days out of date.

Length 60 m; draft 4 m.

Type: Pollution control. MMSI: 247159000.

Date/timePositionNaut miles runAvg speedWind from/ knotsBaromVisibWave heightAir tempDewpointWater temp
2017-Oct-06 09:25N 44°25' E 008°55'0 0.0
2017-Oct-06 08:55N 44°25' E 008°55'0 0.0
2017-Oct-06 08:25N 44°25' E 008°55'0 0.0
2017-Oct-06 07:55N 44°25' E 008°55'0 0.0
2017-Oct-06 07:25N 44°25' E 008°55'0 0.0
2017-Oct-06 06:55N 44°25' E 008°55'0 0.0
2017-Oct-06 06:28N 44°25' E 008°55'0 0.0
2017-Oct-06 05:58N 44°25' E 008°55'0 0.0
2017-Oct-06 05:28N 44°25' E 008°55'0 0.0
2017-Oct-06 04:58N 44°25' E 008°55'0 0.0
2017-Oct-06 04:28N 44°25' E 008°55'0 0.0
2017-Oct-06 03:58N 44°25' E 008°55'0 0.0
2017-Oct-06 03:28N 44°25' E 008°55'0 0.0
2017-Oct-06 02:58N 44°25' E 008°55'0 0.0
2017-Oct-06 02:28N 44°25' E 008°55'0 0.0
2017-Oct-06 01:58N 44°25' E 008°55'0 0.0
2017-Oct-06 01:28N 44°25' E 008°55'0 0.0
2017-Oct-06 00:58N 44°25' E 008°55'0 0.0
2017-Oct-06 00:28N 44°25' E 008°55'0 0.0
2017-Oct-05 23:58N 44°25' E 008°55'0 0.0
2017-Oct-05 23:28N 44°25' E 008°55'0 0.0
2017-Oct-05 22:49N 44°25' E 008°55'0 0.0
2017-Oct-05 22:25N 44°25' E 008°55'0 0.0
2017-Oct-05 21:58N 44°25' E 008°55'0 0.0
2017-Oct-05 21:25N 44°25' E 008°55'0 0.0
2017-Oct-05 20:58N 44°25' E 008°55'0 0.0
2017-Oct-05 20:25N 44°25' E 008°55'0 0.0
2017-Oct-05 19:52N 44°25' E 008°55'0 0.0
2017-Oct-05 19:25N 44°25' E 008°55'0 0.0
2017-Oct-05 18:55N 44°25' E 008°55'0 0.0
2017-Oct-05 18:28N 44°25' E 008°55'0 0.0
2017-Oct-05 17:55N 44°25' E 008°55'0 0.0
2017-Oct-05 17:25N 44°25' E 008°55'0 0.0
2017-Oct-05 16:55N 44°25' E 008°55'0 0.0
2017-Oct-05 15:28N 44°25' E 008°55'0 0.0
2017-Oct-05 14:58N 44°25' E 008°55'0 0.0
2017-Oct-05 14:19N 44°25' E 008°55'0 0.0
2017-Oct-05 13:58N 44°25' E 008°55'0 0.0
2017-Oct-05 13:28N 44°25' E 008°55'0 0.0
2017-Oct-05 12:58N 44°25' E 008°55'0 0.0
2017-Oct-05 12:28N 44°25' E 008°55'0 0.0
2017-Oct-05 11:58N 44°25' E 008°55'0 0.0
2017-Oct-05 11:29N 44°25' E 008°55'0 0.1
2017-Oct-05 11:01N 44°25' E 008°55'3 6.1
2017-Oct-05 10:30N 44°22' E 008°58'4 7.2
2017-Oct-05 10:01N 44°19' E 008°56'4 7.5
2017-Oct-05 09:31N 44°17' E 008°52'3 6.8
2017-Oct-05 09:01N 44°15' E 008°48'3 6.6
2017-Oct-05 08:31N 44°13' E 008°44'3 6.7
2017-Oct-05 08:01N 44°10' E 008°41'3 6.7
2017-Oct-05 07:31N 44°08' E 008°38'3 6.7
2017-Oct-05 07:00N 44°06' E 008°34'3 6.5
2017-Oct-05 06:31N 44°04' E 008°31'4 6.5
2017-Oct-05 05:56N 44°01' E 008°27'3 6.5
2017-Oct-05 05:30N 43°59' E 008°24'8 6.4
2017-Oct-05 04:12N 43°54' E 008°15'3 6.2
2017-Oct-05 03:44N 43°52' E 008°12'1 6.0
2017-Oct-05 03:29N 43°51' E 008°10'4 6.0
2017-Oct-05 02:50N 43°49' E 008°05'2 6.0
2017-Oct-05 02:30N 43°49' E 008°03'4 6.3
2017-Oct-05 01:50N 43°47' E 007°58'3 6.3
2017-Oct-05 01:22N 43°45' E 007°54'3 6.3
2017-Oct-05 00:57N 43°44' E 007°51'3 6.3
2017-Oct-05 00:28N 43°42' E 007°47'3 6.2
2017-Oct-04 23:59N 43°41' E 007°44'4 6.9
2017-Oct-04 23:25N 43°39' E 007°39'3 7.0
2017-Oct-04 23:00N 43°37' E 007°36'4 7.0
2017-Oct-04 22:30N 43°35' E 007°32'4 6.9
2017-Oct-04 21:54N 43°33' E 007°27'3 6.8
2017-Oct-04 21:29N 43°32' E 007°23'3 6.8
2017-Oct-04 20:59N 43°29' E 007°20'3 6.9
2017-Oct-04 20:29N 43°27' E 007°16'3 7.0
2017-Oct-04 20:01N 43°25' E 007°13'3 6.9
2017-Oct-04 19:30N 43°23' E 007°09'3 6.9
2017-Oct-04 19:00N 43°20' E 007°06'3 7.0
2017-Oct-04 18:30N 43°18' E 007°02'20 6.9
2017-Oct-04 15:39N 43°06' E 006°41'1 7.2
2017-Oct-04 15:27N 43°06' E 006°39'16 0.9
2017-Oct-03 21:41N 43°15' E 006°57'2 5.8
2017-Oct-03 21:25N 43°16' E 006°59'2 5.9
2017-Oct-03 21:01N 43°17' E 007°01'3 5.9
2017-Oct-03 20:31N 43°19' E 007°04'3 5.8
2017-Oct-03 20:00N 43°21' E 007°07'3 5.6
2017-Oct-03 19:30N 43°23' E 007°10'3 5.7
2017-Oct-03 18:59N 43°25' E 007°13'3 5.7
2017-Oct-03 18:27N 43°28' E 007°16'4 6.7
2017-Oct-03 17:50N 43°30' E 007°20'2 6.8
2017-Oct-03 17:30N 43°30' E 007°23'50 7.2
2017-Oct-03 10:32N 43°58' E 008°21'0 7.7
2017-Oct-03 10:30N 43°58' E 008°22'4 7.8
2017-Oct-03 10:00N 44°01' E 008°25'4 7.8
2017-Oct-03 09:30N 44°03' E 008°30'4 7.9
2017-Oct-03 09:00N 44°06' E 008°34'4 8.1
2017-Oct-03 08:30N 44°08' E 008°38'4 8.1
2017-Oct-03 08:00N 44°11' E 008°43'4 8.4
2017-Oct-03 07:30N 44°13' E 008°47'4 8.3
2017-Oct-03 07:00N 44°16' E 008°52'4 7.9
2017-Oct-03 06:30N 44°19' E 008°56'3 6.7
2017-Oct-03 06:00N 44°22' E 008°57'3 5.6
2017-Oct-03 05:30N 44°25' E 008°55'0 0.4
2017-Oct-03 04:58N 44°25' E 008°55'0 0.0
2017-Oct-03 04:28N 44°25' E 008°55'0 0.0
2017-Oct-03 04:00N 44°25' E 008°55'0 0.0
2017-Oct-03 03:30N 44°25' E 008°55'0 0.0
2017-Oct-03 03:00N 44°25' E 008°55'0 0.0
2017-Oct-03 02:30N 44°25' E 008°55'0 0.0
2017-Oct-03 02:00N 44°25' E 008°55'0 0.0
2017-Oct-03 01:27N 44°25' E 008°55'0 0.0
2017-Oct-03 01:00N 44°25' E 008°55'0 0.0
2017-Oct-03 00:27N 44°25' E 008°55'0 0.0
2017-Oct-03 00:00N 44°25' E 008°55'0 0.0
2017-Oct-02 23:24N 44°25' E 008°55'0 0.0
2017-Oct-02 22:57N 44°25' E 008°55'0 0.0
2017-Oct-02 22:24N 44°25' E 008°55'0 0.0
2017-Oct-02 21:57N 44°25' E 008°55'0 0.0
2017-Oct-02 21:27N 44°25' E 008°55'0 0.0
2017-Oct-02 20:57N 44°25' E 008°55'0 0.0
2017-Oct-02 20:27N 44°25' E 008°55'0 0.0
2017-Oct-02 20:00N 44°25' E 008°55'0 0.0
2017-Oct-02 19:27N 44°25' E 008°55'0 0.0
2017-Oct-02 19:00N 44°25' E 008°55'0 0.0
2017-Oct-02 18:30N 44°25' E 008°55'0 0.0
2017-Oct-02 18:00N 44°25' E 008°55'0 0.0
2017-Oct-02 17:30N 44°25' E 008°55'0 0.0
2017-Oct-02 17:00N 44°25' E 008°55'0 0.0
2017-Oct-02 16:30N 44°25' E 008°55'0 0.0
2017-Oct-02 16:00N 44°25' E 008°55'0 0.0
2017-Oct-02 15:30N 44°25' E 008°55'0 0.0
2017-Oct-02 15:00N 44°25' E 008°55'0 0.0
2017-Oct-02 14:30N 44°25' E 008°55'0 0.0
2017-Oct-02 13:58N 44°25' E 008°55'0 0.0
2017-Oct-02 13:30N 44°25' E 008°55'0 0.0
2017-Oct-02 12:57N 44°25' E 008°55'0 0.0
2017-Oct-02 12:30N 44°25' E 008°55'0 0.0
2017-Oct-02 11:57N 44°25' E 008°55'0 0.0
2017-Oct-02 11:24N 44°25' E 008°55'0 0.0
2017-Oct-02 10:54N 44°25' E 008°55'0 0.0
2017-Oct-02 10:24N 44°25' E 008°55'0 0.0
2017-Oct-02 10:00N 44°25' E 008°55'0 0.0
2017-Oct-02 09:30N 44°25' E 008°55'0 0.0
2017-Oct-02 09:00N 44°25' E 008°55'0 0.0
2017-Oct-02 08:27N 44°25' E 008°55'0 0.0
2017-Oct-02 08:00N 44°25' E 008°55'0 0.0
2017-Oct-02 07:30N 44°25' E 008°55'0 0.0
2017-Oct-02 07:00N 44°25' E 008°55'0 0.0
2017-Oct-02 06:30N 44°25' E 008°55'0 0.0
2017-Oct-02 06:00N 44°25' E 008°55'0 0.0
2017-Oct-02 05:30N 44°25' E 008°55'0 0.0
2017-Oct-02 05:00N 44°25' E 008°55'0 0.0
2017-Oct-02 04:30N 44°25' E 008°55'0 0.0
2017-Oct-02 04:00N 44°25' E 008°55'0 0.0
2017-Oct-02 03:30N 44°25' E 008°55'0 0.0
2017-Oct-02 03:00N 44°25' E 008°55'0 0.0
2017-Oct-02 02:30N 44°25' E 008°55'0 0.0
2017-Oct-02 02:00N 44°25' E 008°55'0 0.0
2017-Oct-02 01:30N 44°25' E 008°55'0 0.0
2017-Oct-02 01:00N 44°25' E 008°55'0 0.0
2017-Oct-02 00:24N 44°25' E 008°55'0 0.0
2017-Oct-02 00:00N 44°25' E 008°55'0 0.0
2017-Oct-01 23:30N 44°25' E 008°55'0 0.0
2017-Oct-01 23:00N 44°25' E 008°55'0 0.0
2017-Oct-01 22:30N 44°25' E 008°55'0 0.0
2017-Oct-01 22:00N 44°25' E 008°55'0 0.0
2017-Oct-01 21:24N 44°25' E 008°55'0 0.0
2017-Oct-01 20:54N 44°25' E 008°55'0 0.0
2017-Oct-01 20:30N 44°25' E 008°55'0 0.0
2017-Oct-01 20:00N 44°25' E 008°55'0 0.0
2017-Oct-01 19:30N 44°25' E 008°55'0 0.0
2017-Oct-01 19:00N 44°25' E 008°55'0 0.0
2017-Oct-01 18:30N 44°25' E 008°55'0 0.0
2017-Oct-01 17:57N 44°25' E 008°55'0 0.0
2017-Oct-01 17:27N 44°25' E 008°55'0 0.0
2017-Oct-01 17:00N 44°25' E 008°55'0 0.0
2017-Oct-01 16:30N 44°25' E 008°55'0 0.0
2017-Oct-01 16:00N 44°25' E 008°55'0 0.0
2017-Oct-01 15:30N 44°25' E 008°55'0 0.0
2017-Oct-01 15:00N 44°25' E 008°55'0 0.0
2017-Oct-01 14:30N 44°25' E 008°55'0 0.0
2017-Oct-01 14:00N 44°25' E 008°55'0 0.0
2017-Oct-01 13:30N 44°25' E 008°55'0 0.0
2017-Oct-01 13:00N 44°25' E 008°55'0 0.0
2017-Oct-01 12:30N 44°25' E 008°55'0 0.0
2017-Oct-01 12:00N 44°25' E 008°55'0 0.0
2017-Oct-01 11:30N 44°25' E 008°55'0 0.0
2017-Oct-01 11:00N 44°25' E 008°55'0 0.0
2017-Oct-01 10:30N 44°25' E 008°55'0 0.0
2017-Oct-01 10:00N 44°25' E 008°55'0 0.0
2017-Oct-01 09:30N 44°25' E 008°55'0 0.0
2017-Oct-01 09:00N 44°25' E 008°55'0 0.0
2017-Oct-01 08:30N 44°25' E 008°55'0 0.0
2017-Oct-01 08:00N 44°25' E 008°55'0 0.0
2017-Oct-01 07:30N 44°25' E 008°55'0 0.0
2017-Oct-01 06:54N 44°25' E 008°55'0 0.0
2017-Oct-01 06:30N 44°25' E 008°55'0 0.0
2017-Oct-01 05:54N 44°25' E 008°55'0 0.1
2017-Oct-01 05:30N 44°25' E 008°55'0 0.0
2017-Oct-01 05:00N 44°25' E 008°55'0 0.0
2017-Oct-01 04:30N 44°25' E 008°55'0 0.0
2017-Oct-01 03:57N 44°25' E 008°55'0 0.0
2017-Oct-01 03:30N 44°25' E 008°55'0 0.0
2017-Oct-01 03:00N 44°25' E 008°55'0 0.0
2017-Sep-30 01:57N 44°25' E 008°55'0 0.0
2017-Sep-30 01:30N 44°25' E 008°55'0 0.0
2017-Sep-30 01:00N 44°25' E 008°55'0 0.0
2017-Sep-30 00:30N 44°25' E 008°55'0 0.0
2017-Sep-29 23:54N 44°25' E 008°55'0 0.0
2017-Sep-29 23:27N 44°25' E 008°55'0 0.0
2017-Sep-29 23:00N 44°25' E 008°55'0 0.0
2017-Sep-29 22:30N 44°25' E 008°55'0 0.0
2017-Sep-29 22:00N 44°25' E 008°55'0 0.0
2017-Sep-29 21:30N 44°25' E 008°55'0 0.0
2017-Sep-29 21:00N 44°25' E 008°55'0 0.0
2017-Sep-29 20:30N 44°25' E 008°55'0 0.0
2017-Sep-29 20:00N 44°25' E 008°55'0 0.0
2017-Sep-29 19:30N 44°25' E 008°55'0 0.0
2017-Sep-29 19:00N 44°25' E 008°55'0 0.0
2017-Sep-29 18:30N 44°25' E 008°55'0 0.0
2017-Sep-29 18:00N 44°25' E 008°55'0 0.0
2017-Sep-29 17:30N 44°25' E 008°55'0 0.0
2017-Sep-29 17:00N 44°25' E 008°55'0 0.0
2017-Sep-29 16:30N 44°25' E 008°55'0 0.0
2017-Sep-29 16:00N 44°25' E 008°55'0 0.0
2017-Sep-29 15:30N 44°25' E 008°55'0 0.0
2017-Sep-29 15:00N 44°25' E 008°55'0 0.0
2017-Sep-29 14:30N 44°25' E 008°55'0 0.0
2017-Sep-29 14:00N 44°25' E 008°55'0 0.0
2017-Sep-29 13:30N 44°25' E 008°55'0 0.0
2017-Sep-29 12:54N 44°25' E 008°55'0 0.1
2017-Sep-29 12:30N 44°25' E 008°55'0 0.0
2017-Sep-29 12:00N 44°25' E 008°55'0 0.0
2017-Sep-29 11:30N 44°25' E 008°55'0 0.0
2017-Sep-29 10:54N 44°25' E 008°55'0 0.0
2017-Sep-29 10:30N 44°25' E 008°55'0 0.0
2017-Sep-29 10:00N 44°25' E 008°55'0 0.0
2017-Sep-29 09:30N 44°25' E 008°55'0 0.0
2017-Sep-29 09:00N 44°25' E 008°55'0 0.0
2017-Sep-29 08:30N 44°25' E 008°55'0 0.0
2017-Sep-29 08:00N 44°25' E 008°55'0 0.0
2017-Sep-29 07:30N 44°25' E 008°55'0 0.0
2017-Sep-29 07:00N 44°25' E 008°55'0 0.0
2017-Sep-29 06:30N 44°25' E 008°55'0 0.0
2017-Sep-29 06:00N 44°25' E 008°55'0 0.0
2017-Sep-29 05:30N 44°25' E 008°55'0 0.0
2017-Sep-29 05:00N 44°25' E 008°55'0 0.0
2017-Sep-29 04:30N 44°25' E 008°55'0 0.0
2017-Sep-29 04:00N 44°25' E 008°55'0 0.0
2017-Sep-29 03:30N 44°25' E 008°55'0 0.0
2017-Sep-29 03:00N 44°25' E 008°55'0 0.0
2017-Sep-29 02:30N 44°25' E 008°55'0 0.0
2017-Sep-29 02:00N 44°25' E 008°55'0 0.0
2017-Sep-29 01:24N 44°25' E 008°55'0 0.0
2017-Sep-29 01:00N 44°25' E 008°55'0 0.0
2017-Sep-29 00:24N 44°25' E 008°55'0 0.0
2017-Sep-29 00:00N 44°25' E 008°55'0 0.0
2017-Sep-28 23:30N 44°25' E 008°55'0 0.0
2017-Sep-28 22:54N 44°25' E 008°55'0 0.0
2017-Sep-28 22:30N 44°25' E 008°55'0 0.0
2017-Sep-28 22:00N 44°25' E 008°55'0 0.0
2017-Sep-28 21:30N 44°25' E 008°55'0 0.0
2017-Sep-28 21:00N 44°25' E 008°55'0 0.0
2017-Sep-28 20:30N 44°25' E 008°55'0 0.0
2017-Sep-28 20:00N 44°25' E 008°55'0 0.0
2017-Sep-28 19:12N 44°25' E 008°55'0 0.0
2017-Sep-28 19:00N 44°25' E 008°55'0 0.0
2017-Sep-28 18:30N 44°25' E 008°55'0 0.0
2017-Sep-28 18:00N 44°25' E 008°55'0 0.0
2017-Sep-28 17:30N 44°25' E 008°55'0 0.0
2017-Sep-28 17:00N 44°25' E 008°55'0 0.0
2017-Sep-28 16:30N 44°25' E 008°55'0 0.0
2017-Sep-28 16:00N 44°25' E 008°55'0 0.0
2017-Sep-28 15:30N 44°25' E 008°55'0 0.0
2017-Sep-28 15:00N 44°25' E 008°55'0 0.0
2017-Sep-28 14:30N 44°25' E 008°55'0 0.0
2017-Sep-28 13:54N 44°25' E 008°55'0 0.0
2017-Sep-28 13:30N 44°25' E 008°55'0 0.0
2017-Sep-28 13:00N 44°25' E 008°55'0 0.0
2017-Sep-28 12:30N 44°25' E 008°55'0 0.0
2017-Sep-28 12:00N 44°25' E 008°55'0 0.0
2017-Sep-28 11:30N 44°25' E 008°55'0 0.0
2017-Sep-28 10:54N 44°25' E 008°55'0 0.0
2017-Sep-28 10:24N 44°25' E 008°55'0 0.0
2017-Sep-28 10:00N 44°25' E 008°55'0 0.0
2017-Sep-28 09:30N 44°25' E 008°55'0 0.0
2017-Sep-28 08:54N 44°25' E 008°55'0 0.0
2017-Sep-28 08:30N 44°25' E 008°55'0 0.0
2017-Sep-28 07:54N 44°25' E 008°55'0 0.0
2017-Sep-28 07:30N 44°25' E 008°55'0 0.0
2017-Sep-28 07:00N 44°25' E 008°55'0 0.0
2017-Sep-28 06:30N 44°25' E 008°55'0 0.0
2017-Sep-28 06:00N 44°25' E 008°55'0 0.0
2017-Sep-28 05:27N 44°25' E 008°55'0 0.0
2017-Sep-28 05:00N 44°25' E 008°55'0 0.0
2017-Sep-28 04:30N 44°25' E 008°55'0 0.0
2017-Sep-28 04:00N 44°25' E 008°55'0 0.0
2017-Sep-28 03:30N 44°25' E 008°55'0 0.0
2017-Sep-28 03:00N 44°25' E 008°55'0 0.0
2017-Sep-28 02:30N 44°25' E 008°55'0 0.0
2017-Sep-28 02:00N 44°25' E 008°55'0 0.0
2017-Sep-28 01:30N 44°25' E 008°55'0 0.0
2017-Sep-28 01:00N 44°25' E 008°55'0 0.0
2017-Sep-28 00:30N 44°25' E 008°55'0 0.0
2017-Sep-28 00:00N 44°25' E 008°55'0 0.0
2017-Sep-27 23:30N 44°25' E 008°55'0 0.0
2017-Sep-27 23:00N 44°25' E 008°55'0 0.0
2017-Sep-27 22:30N 44°25' E 008°55'0 0.0
2017-Sep-27 22:00N 44°25' E 008°55'0 0.0
2017-Sep-27 21:24N 44°25' E 008°55'0 0.0
2017-Sep-27 21:00N 44°25' E 008°55'0 0.0
2017-Sep-27 20:30N 44°25' E 008°55'0 0.0
2017-Sep-27 19:54N 44°25' E 008°55'0 0.0
2017-Sep-27 19:24N 44°25' E 008°55'0 0.0
2017-Sep-27 19:00N 44°25' E 008°55'0 0.0
2017-Sep-27 18:30N 44°25' E 008°55'0 0.0
2017-Sep-27 17:54N 44°25' E 008°55'0 0.0
2017-Sep-27 17:30N 44°25' E 008°55'0 0.0
2017-Sep-27 16:57N 44°25' E 008°55'0 0.0
2017-Sep-27 16:27N 44°25' E 008°55'0 0.0
2017-Sep-27 15:54N 44°25' E 008°55'0 0.0
2017-Sep-27 15:27N 44°25' E 008°55'0 0.0
2017-Sep-27 14:57N 44°25' E 008°55'0 0.0
2017-Sep-27 14:27N 44°25' E 008°55'0 0.0
2017-Sep-27 13:57N 44°25' E 008°55'0 0.0
2017-Sep-27 13:27N 44°25' E 008°55'0 0.0
2017-Sep-27 12:57N 44°25' E 008°55'0 0.0
2017-Sep-27 12:30N 44°25' E 008°55'0 0.0
2017-Sep-27 12:00N 44°25' E 008°55'0 0.0
2017-Sep-27 11:30N 44°25' E 008°55'0 0.0
2017-Sep-27 11:00N 44°25' E 008°55'0 0.0
2017-Sep-27 10:30N 44°25' E 008°55'0 0.0
2017-Sep-27 10:00N 44°25' E 008°55'0 0.0
2017-Sep-27 09:30N 44°25' E 008°55'0 0.0
2017-Sep-27 09:00N 44°25' E 008°55'0 0.0
2017-Sep-27 08:30N 44°25' E 008°55'0 0.0
2017-Sep-27 08:00N 44°25' E 008°55'0 0.0
2017-Sep-27 07:30N 44°25' E 008°55'0 0.0
2017-Sep-27 07:00N 44°25' E 008°55'0 0.0
2017-Sep-27 06:30N 44°25' E 008°55'0 0.0
2017-Sep-27 06:00N 44°25' E 008°55'0 0.0
2017-Sep-27 05:27N 44°25' E 008°55'0 0.0
2017-Sep-27 04:57N 44°25' E 008°55'0 0.0
2017-Sep-27 04:27N 44°25' E 008°55'0 0.0
2017-Sep-27 03:57N 44°25' E 008°55'0 0.0
2017-Sep-27 03:27N 44°25' E 008°55'0 0.0
2017-Sep-27 02:57N 44°25' E 008°55'0 0.0
2017-Sep-27 02:27N 44°25' E 008°55'0 0.0
2017-Sep-27 01:57N 44°25' E 008°55'0 0.0
2017-Sep-27 01:27N 44°25' E 008°55'0 0.0
2017-Sep-27 00:57N 44°25' E 008°55'0 0.0
2017-Sep-27 00:27N 44°25' E 008°55'0 0.0
2017-Sep-26 23:57N 44°25' E 008°55'0 0.0
2017-Sep-26 23:27N 44°25' E 008°55'0 0.0
2017-Sep-26 22:57N 44°25' E 008°55'0 0.0
2017-Sep-26 22:30N 44°25' E 008°55'0 0.0
2017-Sep-26 22:00N 44°25' E 008°55'0 0.0
2017-Sep-26 21:30N 44°25' E 008°55'0 0.0
2017-Sep-26 21:00N 44°25' E 008°55'0 0.0
2017-Sep-26 20:30N 44°25' E 008°55'0 0.0
2017-Sep-26 19:57N 44°25' E 008°55'0 0.0
2017-Sep-26 19:30N 44°25' E 008°55'0 0.0
2017-Sep-26 18:57N 44°25' E 008°55'0 0.0
2017-Sep-26 18:30N 44°25' E 008°55'0 0.0
2017-Sep-26 18:00N 44°25' E 008°55'0 0.0
2017-Sep-26 17:30N 44°25' E 008°55'0 0.0
2017-Sep-26 16:59N 44°25' E 008°55'0 0.0
2017-Sep-26 16:29N 44°25' E 008°55'0 0.0
2017-Sep-26 15:59N 44°25' E 008°55'0 0.0
2017-Sep-26 15:29N 44°25' E 008°55'0 0.0
2017-Sep-26 14:59N 44°25' E 008°55'0 0.0
2017-Sep-26 14:29N 44°25' E 008°55'0 0.0
2017-Sep-26 13:59N 44°25' E 008°55'0 0.0
2017-Sep-26 13:26N 44°25' E 008°55'0 0.0
2017-Sep-26 12:50N 44°25' E 008°55'0 0.0
2017-Sep-26 12:29N 44°25' E 008°55'0 0.0
2017-Sep-26 11:56N 44°25' E 008°55'0 0.0
2017-Sep-26 11:29N 44°25' E 008°55'0 0.0
2017-Sep-26 10:59N 44°25' E 008°55'0 0.0
2017-Sep-26 10:26N 44°25' E 008°55'0 0.0
2017-Sep-26 09:59N 44°25' E 008°55'0 0.0
2017-Sep-26 09:26N 44°25' E 008°55'  

Dump ship's entire track history